Hovedside
METAR-TAF:

METAR-TAF

Lufthavner :

Shanghai-Pudong, Kina

Shanghai Pudong internasjonale lufthavn

breddegrad: 31-07N, lengdegrad: 121-46E, høyde over havet: 4 m

Gjeldene værobservasjon

Denne rapporten ble laget for 29 minutter siden, klokken 18:00 UTC
Vind 4 kt fra Vest-nordvest
Temperatur 11°C
Luftfuktighet 82%
Trykk 1016 hPa
Sikt 10 km eller mer
ingen skyer under 1500 m og ingen bygeskyer

METAR: ZSPD 241800Z 30002MPS CAVOK 11/08 Q1016 NOSIG

Tid: 02:29 (18:29 UTC)

Varsel

Denne rapporten ble laget for 3 timer og 14 minutter siden, klokken 15:15 UTC
Varsel gyldig fra 24. klokken 18 UTC til 25. klokken 18 UTC
Vind 8 kt fra Nord
Sikt: 5000 m
Brutte skyer i en høyde av 2000 ft
dis

TAF: ZSPD 241515Z 2418/2518 01004MPS 5000 BR BKN020 TX19/2506Z TN11/2421Z

Værobservasjoner og værvarsel for over 4000 flyplasser (METAR- og TAF-rapporter).

Tilgjengelige stasjoner er representert av de røde og gule prikkene på kartet.

Hold musepekeren over prikken for å se navnet på stasjonen.

Klikk så for å se værobservasjoner og -varsler.

For å forandre kartet kan du klikke på den grønne knappen med svart kryss for å zoome inn, på den grønne knappen med strek for å zoome ut, eller på de grønne pilene for å se tilstøtende kart.


METAR-TAF: